sensor_id;sensor_type;location;lat;lon;timestamp;pressure;altitude;pressure_sealevel;temperature;humidity
53550;BME280;67273;52.914;-0.982;2023-03-19T00:01:54;100626.41;;;18.39;45.95
53550;BME280;67273;52.914;-0.982;2023-03-19T00:04:19;100615.75;;;18.38;45.91
53550;BME280;67273;52.914;-0.982;2023-03-19T00:06:45;100624.72;;;18.38;45.82
53550;BME280;67273;52.914;-0.982;2023-03-19T00:09:11;100626.88;;;18.36;45.88
53550;BME280;67273;52.914;-0.982;2023-03-19T00:11:37;100627.94;;;18.35;45.72
53550;BME280;67273;52.914;-0.982;2023-03-19T00:14:05;100630.91;;;18.34;45.86
53550;BME280;67273;52.914;-0.982;2023-03-19T00:16:31;100633.63;;;18.34;45.59
53550;BME280;67273;52.914;-0.982;2023-03-19T00:18:58;100626.50;;;18.33;45.75
53550;BME280;67273;52.914;-0.982;2023-03-19T00:21:23;100619.44;;;18.32;45.89
53550;BME280;67273;52.914;-0.982;2023-03-19T00:23:49;100629.47;;;18.31;45.65
53550;BME280;67273;52.914;-0.982;2023-03-19T00:26:16;100618.59;;;18.31;45.69
53550;BME280;67273;52.914;-0.982;2023-03-19T00:28:42;100619.69;;;18.30;45.65
53550;BME280;67273;52.914;-0.982;2023-03-19T00:31:09;100622.41;;;18.30;45.66
53550;BME280;67273;52.914;-0.982;2023-03-19T00:33:36;100642.47;;;18.29;45.42
53550;BME280;67273;52.914;-0.982;2023-03-19T00:36:05;100643.56;;;18.28;45.62
53550;BME280;67273;52.914;-0.982;2023-03-19T00:38:31;100649.00;;;18.28;45.56
53550;BME280;67273;52.914;-0.982;2023-03-19T00:40:57;100655.50;;;18.27;45.36
53550;BME280;67273;52.914;-0.982;2023-03-19T00:43:23;100654.91;;;18.25;45.56
53550;BME280;67273;52.914;-0.982;2023-03-19T00:45:49;100663.88;;;18.26;45.52
53550;BME280;67273;52.914;-0.982;2023-03-19T00:48:15;100669.31;;;18.26;45.55
53550;BME280;67273;52.914;-0.982;2023-03-19T00:50:41;100654.31;;;18.23;45.77
53550;BME280;67273;52.914;-0.982;2023-03-19T00:53:09;100665.19;;;18.23;45.45
53550;BME280;67273;52.914;-0.982;2023-03-19T00:55:35;100669.78;;;18.22;45.41
53550;BME280;67273;52.914;-0.982;2023-03-19T00:58:01;100665.44;;;18.21;45.33
53550;BME280;67273;52.914;-0.982;2023-03-19T01:00:26;100667.06;;;18.22;45.38
53550;BME280;67273;52.914;-0.982;2023-03-19T01:02:52;100661.03;;;18.20;45.54
53550;BME280;67273;52.914;-0.982;2023-03-19T01:05:19;100657.28;;;18.21;45.37
53550;BME280;67273;52.914;-0.982;2023-03-19T01:07:44;100676.53;;;18.20;45.40
53550;BME280;67273;52.914;-0.982;2023-03-19T01:10:12;100680.94;;;18.21;45.40
53550;BME280;67273;52.914;-0.982;2023-03-19T01:12:37;100683.03;;;18.19;45.57
53550;BME280;67273;52.914;-0.982;2023-03-19T01:15:05;100688.47;;;18.19;45.41
53550;BME280;67273;52.914;-0.982;2023-03-19T01:17:31;100693.91;;;18.19;45.39
53550;BME280;67273;52.914;-0.982;2023-03-19T01:19:57;100699.34;;;18.19;45.25
53550;BME280;67273;52.914;-0.982;2023-03-19T01:22:23;100695.81;;;18.18;45.35
53550;BME280;67273;52.914;-0.982;2023-03-19T01:24:54;100694.13;;;18.17;45.40
53550;BME280;67273;52.914;-0.982;2023-03-19T01:27:21;100690.59;;;18.17;45.21
53550;BME280;67273;52.914;-0.982;2023-03-19T01:29:49;100673.69;;;18.15;45.32
53550;BME280;67273;52.914;-0.982;2023-03-19T01:32:23;100671.81;;;18.15;45.30
53550;BME280;67273;52.914;-0.982;2023-03-19T01:35:18;100687.28;;;18.15;45.39
53550;BME280;67273;52.914;-0.982;2023-03-19T01:37:43;100686.47;;;18.14;45.31
53550;BME280;67273;52.914;-0.982;2023-03-19T01:40:11;100698.41;;;18.13;45.34
53550;BME280;67273;52.914;-0.982;2023-03-19T01:42:52;100691.31;;;18.12;45.14
53550;BME280;67273;52.914;-0.982;2023-03-19T01:45:42;100687.75;;;18.12;45.37
53550;BME280;67273;52.914;-0.982;2023-03-19T01:48:31;100695.91;;;18.12;45.39
53550;BME280;67273;52.914;-0.982;2023-03-19T01:51:06;100693.44;;;18.10;45.20
53550;BME280;67273;52.914;-0.982;2023-03-19T01:54:03;100708.91;;;18.10;45.13
53550;BME280;67273;52.914;-0.982;2023-03-19T01:56:44;100703.47;;;18.10;45.04
53550;BME280;67273;52.914;-0.982;2023-03-19T01:59:25;100690.13;;;18.08;45.13
53550;BME280;67273;52.914;-0.982;2023-03-19T02:02:08;100701.84;;;18.09;45.23
53550;BME280;67273;52.914;-0.982;2023-03-19T02:04:36;100700.16;;;18.08;45.11
53550;BME280;67273;52.914;-0.982;2023-03-19T02:07:04;100710.22;;;18.07;45.09
53550;BME280;67273;52.914;-0.982;2023-03-19T02:09:32;100711.28;;;18.06;45.11
53550;BME280;67273;52.914;-0.982;2023-03-19T02:11:59;100700.41;;;18.06;45.21
53550;BME280;67273;52.914;-0.982;2023-03-19T02:14:28;100705.03;;;18.05;45.08
53550;BME280;67273;52.914;-0.982;2023-03-19T02:16:54;100711.50;;;18.04;45.10
53550;BME280;67273;52.914;-0.982;2023-03-19T02:19:26;100692.47;;;18.04;45.20
53550;BME280;67273;52.914;-0.982;2023-03-19T02:21:54;100701.72;;;18.03;45.07
53550;BME280;67273;52.914;-0.982;2023-03-19T02:24:26;100716.13;;;18.04;45.00
53550;BME280;67273;52.914;-0.982;2023-03-19T02:27:06;100706.56;;;18.01;45.08
53550;BME280;67273;52.914;-0.982;2023-03-19T02:29:32;100714.72;;;18.01;45.08
53550;BME280;67273;52.914;-0.982;2023-03-19T02:31:59;100711.16;;;18.01;44.89
53550;BME280;67273;52.914;-0.982;2023-03-19T02:34:35;100718.47;;;18.00;44.90
53550;BME280;67273;52.914;-0.982;2023-03-19T02:37:05;100719.53;;;17.99;44.82
53550;BME280;67273;52.914;-0.982;2023-03-19T02:39:37;100724.97;;;17.99;44.95
53550;BME280;67273;52.914;-0.982;2023-03-19T02:42:07;100728.78;;;17.98;44.89
53550;BME280;67273;52.914;-0.982;2023-03-19T02:44:34;100727.09;;;17.97;44.85
53550;BME280;67273;52.914;-0.982;2023-03-19T02:47:00;100732.53;;;17.97;45.00
53550;BME280;67273;52.914;-0.982;2023-03-19T02:49:26;100736.34;;;17.96;44.93
53550;BME280;67273;52.914;-0.982;2023-03-19T02:51:51;100739.06;;;17.96;45.02
53550;BME280;67273;52.914;-0.982;2023-03-19T02:54:17;100734.66;;;17.95;44.87
53550;BME280;67273;52.914;-0.982;2023-03-19T02:56:43;100747.66;;;17.93;44.95
53550;BME280;67273;52.914;-0.982;2023-03-19T02:59:10;100742.22;;;17.93;44.96
53550;BME280;67273;52.914;-0.982;2023-03-19T03:01:35;100745.75;;;17.94;44.81
53550;BME280;67273;52.914;-0.982;2023-03-19T03:04:02;100735.13;;;17.92;44.77
53550;BME280;67273;52.914;-0.982;2023-03-19T03:06:27;100751.44;;;17.92;44.87
53550;BME280;67273;52.914;-0.982;2023-03-19T03:08:53;100743.28;;;17.92;44.90
53550;BME280;67273;52.914;-0.982;2023-03-19T03:11:19;100752.50;;;17.91;44.78
53550;BME280;67273;52.914;-0.982;2023-03-19T03:13:45;100759.00;;;17.90;44.77
53550;BME280;67273;52.914;-0.982;2023-03-19T03:16:13;100760.66;;;17.91;44.82
53550;BME280;67273;52.914;-0.982;2023-03-19T03:18:41;100766.09;;;17.91;44.96
53550;BME280;67273;52.914;-0.982;2023-03-19T03:21:07;100760.66;;;17.91;44.67
53550;BME280;67273;52.914;-0.982;2023-03-19T03:23:32;100765.25;;;17.91;44.72
53550;BME280;67273;52.914;-0.982;2023-03-19T03:25:58;100769.03;;;17.90;44.85
53550;BME280;67273;52.914;-0.982;2023-03-19T03:28:25;100772.56;;;17.90;44.89
53550;BME280;67273;52.914;-0.982;2023-03-19T03:30:57;100772.81;;;17.89;44.72
53550;BME280;67273;52.914;-0.982;2023-03-19T03:33:24;100784.53;;;17.89;44.82
53550;BME280;67273;52.914;-0.982;2023-03-19T03:35:50;100780.97;;;17.89;44.78
53550;BME280;67273;52.914;-0.982;2023-03-19T03:38:16;100780.16;;;17.88;44.85
53550;BME280;67273;52.914;-0.982;2023-03-19T03:40:42;100775.75;;;17.87;44.66
53550;BME280;67273;52.914;-0.982;2023-03-19T03:43:08;100783.09;;;17.86;44.79
53550;BME280;67273;52.914;-0.982;2023-03-19T03:45:35;100781.19;;;17.87;44.76
53550;BME280;67273;52.914;-0.982;2023-03-19T03:48:01;100784.97;;;17.86;44.75
53550;BME280;67273;52.914;-0.982;2023-03-19T03:50:30;100789.59;;;17.85;44.83
53550;BME280;67273;52.914;-0.982;2023-03-19T03:53:01;100794.38;;;17.83;44.76
53550;BME280;67273;52.914;-0.982;2023-03-19T03:55:29;100799.59;;;17.85;44.81
53550;BME280;67273;52.914;-0.982;2023-03-19T03:57:57;100796.28;;;17.83;44.85
53550;BME280;67273;52.914;-0.982;2023-03-19T04:00:25;100791.66;;;17.83;44.58
53550;BME280;67273;52.914;-0.982;2023-03-19T04:02:51;100797.09;;;17.83;44.68
53550;BME280;67273;52.914;-0.982;2023-03-19T04:05:17;100800.91;;;17.82;44.58
53550;BME280;67273;52.914;-0.982;2023-03-19T04:07:44;100802.78;;;17.82;44.50
53550;BME280;67273;52.914;-0.982;2023-03-19T04:10:11;100800.06;;;17.82;44.43
53550;BME280;67273;52.914;-0.982;2023-03-19T04:12:37;100806.56;;;17.81;44.73
53550;BME280;67273;52.914;-0.982;2023-03-19T04:15:04;100816.38;;;17.82;44.70
53550;BME280;67273;52.914;-0.982;2023-03-19T04:17:32;100813.88;;;17.80;44.65
53550;BME280;67273;52.914;-0.982;2023-03-19T04:19:58;100813.88;;;17.80;44.68
53550;BME280;67273;52.914;-0.982;2023-03-19T04:22:24;100813.66;;;17.82;44.54
53550;BME280;67273;52.914;-0.982;2023-03-19T04:24:53;100810.31;;;17.80;44.57
53550;BME280;67273;52.914;-0.982;2023-03-19T04:27:19;100814.94;;;17.79;44.64
53550;BME280;67273;52.914;-0.982;2023-03-19T04:29:45;100814.13;;;17.79;44.54
53550;BME280;67273;52.914;-0.982;2023-03-19T04:32:11;100817.88;;;17.78;44.53
53550;BME280;67273;52.914;-0.982;2023-03-19T04:34:37;100826.03;;;17.78;44.66
53550;BME280;67273;52.914;-0.982;2023-03-19T04:37:03;100825.22;;;17.77;44.60
53550;BME280;67273;52.914;-0.982;2023-03-19T04:39:30;100836.91;;;17.78;44.52
53550;BME280;67273;52.914;-0.982;2023-03-19T04:41:59;100843.41;;;17.77;44.48
53550;BME280;67273;52.914;-0.982;2023-03-19T04:44:31;100846.13;;;17.77;44.53
53550;BME280;67273;52.914;-0.982;2023-03-19T04:46:59;100849.88;;;17.76;44.54
53550;BME280;67273;52.914;-0.982;2023-03-19T04:49:27;100849.06;;;17.75;44.62
53550;BME280;67273;52.914;-0.982;2023-03-19T04:51:56;100859.13;;;17.75;44.64
53550;BME280;67273;52.914;-0.982;2023-03-19T04:54:24;100850.13;;;17.74;44.58
53550;BME280;67273;52.914;-0.982;2023-03-19T04:56:50;100854.72;;;17.74;44.41
53550;BME280;67273;52.914;-0.982;2023-03-19T04:59:21;100862.88;;;17.74;44.59
53550;BME280;67273;52.914;-0.982;2023-03-19T05:01:47;100863.94;;;17.73;44.50
53550;BME280;67273;52.914;-0.982;2023-03-19T05:04:18;100868.31;;;17.74;44.44
53550;BME280;67273;52.914;-0.982;2023-03-19T05:06:45;100872.06;;;17.73;44.56
53550;BME280;67273;52.914;-0.982;2023-03-19T05:09:10;100873.97;;;17.72;44.59
53550;BME280;67273;52.914;-0.982;2023-03-19T05:11:36;100874.78;;;17.73;44.47
53550;BME280;67273;52.914;-0.982;2023-03-19T05:14:05;100880.47;;;17.71;44.49
53550;BME280;67273;52.914;-0.982;2023-03-19T05:17:11;100883.16;;;17.71;44.55
53550;BME280;67273;52.914;-0.982;2023-03-19T05:19:50;100874.19;;;17.71;44.48
53550;BME280;67273;52.914;-0.982;2023-03-19T05:22:21;100895.94;;;17.71;44.52
53550;BME280;67273;52.914;-0.982;2023-03-19T05:24:49;100886.16;;;17.70;44.44
53550;BME280;67273;52.914;-0.982;2023-03-19T05:27:14;100899.72;;;17.70;44.48
53550;BME280;67273;52.914;-0.982;2023-03-19T05:29:50;100898.06;;;17.68;44.61
53550;BME280;67273;52.914;-0.982;2023-03-19T05:32:24;100896.38;;;17.67;44.28
53550;BME280;67273;52.914;-0.982;2023-03-19T05:34:50;100889.31;;;17.66;44.63
53550;BME280;67273;52.914;-0.982;2023-03-19T05:37:17;100903.72;;;17.67;44.40
53550;BME280;67273;52.914;-0.982;2023-03-19T05:39:48;100911.03;;;17.66;44.46
53550;BME280;67273;52.914;-0.982;2023-03-19T05:42:13;100906.44;;;17.67;44.37
53550;BME280;67273;52.914;-0.982;2023-03-19T05:44:40;100912.09;;;17.65;44.53
53550;BME280;67273;52.914;-0.982;2023-03-19T05:47:28;100913.97;;;17.65;44.35
53550;BME280;67273;52.914;-0.982;2023-03-19T05:49:56;100913.97;;;17.65;44.47
53550;BME280;67273;52.914;-0.982;2023-03-19T05:52:22;100913.97;;;17.65;44.36
53550;BME280;67273;52.914;-0.982;2023-03-19T05:54:48;100913.16;;;17.64;44.43
53550;BME280;67273;52.914;-0.982;2023-03-19T05:57:50;100907.72;;;17.64;44.39
53550;BME280;67273;52.914;-0.982;2023-03-19T06:00:20;100923.19;;;17.64;44.40
53550;BME280;67273;52.914;-0.982;2023-03-19T06:02:48;100923.19;;;17.64;44.53
53550;BME280;67273;52.914;-0.982;2023-03-19T06:05:26;100916.94;;;17.63;44.48
53550;BME280;67273;52.914;-0.982;2023-03-19T06:07:55;100914.44;;;17.62;44.40
53550;BME280;67273;52.914;-0.982;2023-03-19T06:10:33;100924.47;;;17.61;44.23
53550;BME280;67273;52.914;-0.982;2023-03-19T06:13:01;100929.91;;;17.61;44.40
53550;BME280;67273;52.914;-0.982;2023-03-19T06:15:36;100929.91;;;17.61;44.24
53550;BME280;67273;52.914;-0.982;2023-03-19T06:18:16;100928.22;;;17.60;44.37
53550;BME280;67273;52.914;-0.982;2023-03-19T06:20:42;100928.22;;;17.60;44.45
53550;BME280;67273;52.914;-0.982;2023-03-19T06:23:09;100932.03;;;17.59;44.29
53550;BME280;67273;52.914;-0.982;2023-03-19T06:25:35;100940.19;;;17.59;44.39
53550;BME280;67273;52.914;-0.982;2023-03-19T06:28:02;100946.66;;;17.58;44.51
53550;BME280;67273;52.914;-0.982;2023-03-19T06:30:34;100948.31;;;17.59;44.35
53550;BME280;67273;52.914;-0.982;2023-03-19T06:33:03;100952.94;;;17.59;44.20
53550;BME280;67273;52.914;-0.982;2023-03-19T06:35:32;100957.53;;;17.58;44.44
53550;BME280;67273;52.914;-0.982;2023-03-19T06:37:58;100958.38;;;17.59;44.37
53550;BME280;67273;52.914;-0.982;2023-03-19T06:40:24;100962.50;;;17.61;44.34
53550;BME280;67273;52.914;-0.982;2023-03-19T06:42:49;100971.44;;;17.68;44.10
53550;BME280;67273;52.914;-0.982;2023-03-19T06:45:16;100972.19;;;17.76;43.75
53550;BME280;67273;52.914;-0.982;2023-03-19T06:47:43;100978.38;;;17.83;43.92
53550;BME280;67273;52.914;-0.982;2023-03-19T06:50:10;100978.50;;;17.95;43.72
53550;BME280;67273;52.914;-0.982;2023-03-19T06:52:38;100977.94;;;18.04;43.70
53550;BME280;67273;52.914;-0.982;2023-03-19T06:55:05;100978.84;;;18.17;43.53
53550;BME280;67273;52.914;-0.982;2023-03-19T06:57:31;100986.75;;;18.37;43.75
53550;BME280;67273;52.914;-0.982;2023-03-19T06:59:57;100982.69;;;18.58;43.74
53550;BME280;67273;52.914;-0.982;2023-03-19T07:02:23;100982.94;;;18.56;43.49
53550;BME280;67273;52.914;-0.982;2023-03-19T07:04:48;100988.28;;;18.63;43.40
53550;BME280;67273;52.914;-0.982;2023-03-19T07:07:15;100985.03;;;18.73;43.11
53550;BME280;67273;52.914;-0.982;2023-03-19T07:09:42;100992.66;;;18.83;42.95
53550;BME280;67273;52.914;-0.982;2023-03-19T07:12:08;100995.03;;;18.91;42.78
53550;BME280;67273;52.914;-0.982;2023-03-19T07:14:34;100997.41;;;18.99;42.69
53550;BME280;67273;52.914;-0.982;2023-03-19T07:17:00;100993.78;;;19.05;42.49
53550;BME280;67273;52.914;-0.982;2023-03-19T07:19:26;101003.13;;;19.09;42.48
53550;BME280;67273;52.914;-0.982;2023-03-19T07:21:51;101006.44;;;19.11;42.30
53550;BME280;67273;52.914;-0.982;2023-03-19T07:24:17;101006.22;;;19.13;42.37
53550;BME280;67273;52.914;-0.982;2023-03-19T07:26:44;101016.66;;;19.16;42.39
53550;BME280;67273;52.914;-0.982;2023-03-19T07:29:10;101016.19;;;19.19;42.40
53550;BME280;67273;52.914;-0.982;2023-03-19T07:31:36;101013.22;;;19.21;42.41
53550;BME280;67273;52.914;-0.982;2023-03-19T07:34:02;101017.81;;;19.20;42.40
53550;BME280;67273;52.914;-0.982;2023-03-19T07:36:28;101022.44;;;19.19;42.36
53550;BME280;67273;52.914;-0.982;2023-03-19T07:38:54;101021.16;;;19.22;42.47
53550;BME280;67273;52.914;-0.982;2023-03-19T07:41:20;101024.13;;;19.21;42.37
53550;BME280;67273;52.914;-0.982;2023-03-19T07:43:47;101031.22;;;19.22;42.46
53550;BME280;67273;52.914;-0.982;2023-03-19T07:46:13;101029.56;;;19.21;42.45
53550;BME280;67273;52.914;-0.982;2023-03-19T07:48:39;101035.03;;;19.21;42.46
53550;BME280;67273;52.914;-0.982;2023-03-19T07:51:05;101038.56;;;19.21;42.53
53550;BME280;67273;52.914;-0.982;2023-03-19T07:53:31;101039.38;;;19.22;42.40
53550;BME280;67273;52.914;-0.982;2023-03-19T07:55:57;101039.38;;;19.22;42.43
53550;BME280;67273;52.914;-0.982;2023-03-19T07:58:23;101033.34;;;19.19;42.26
53550;BME280;67273;52.914;-0.982;2023-03-19T08:00:51;101037.97;;;19.19;42.48
53550;BME280;67273;52.914;-0.982;2023-03-19T08:03:17;101046.16;;;19.19;42.37
53550;BME280;67273;52.914;-0.982;2023-03-19T08:05:43;101048.88;;;19.19;42.48
53550;BME280;67273;52.914;-0.982;2023-03-19T08:08:09;101054.31;;;19.19;42.42
53550;BME280;67273;52.914;-0.982;2023-03-19T08:10:34;101056.19;;;19.18;42.37
53550;BME280;67273;52.914;-0.982;2023-03-19T08:13:00;101061.91;;;19.17;42.43
53550;BME280;67273;52.914;-0.982;2023-03-19T08:15:26;101061.03;;;19.16;42.25
53550;BME280;67273;52.914;-0.982;2023-03-19T08:17:57;101064.84;;;19.15;42.18
53550;BME280;67273;52.914;-0.982;2023-03-19T08:20:23;101065.66;;;19.16;42.32
53550;BME280;67273;52.914;-0.982;2023-03-19T08:22:49;101075.75;;;19.15;42.04
53550;BME280;67273;52.914;-0.982;2023-03-19T08:25:15;101066.97;;;19.13;42.22
53550;BME280;67273;52.914;-0.982;2023-03-19T08:27:41;101077.88;;;19.13;42.20
53550;BME280;67273;52.914;-0.982;2023-03-19T08:30:09;101079.97;;;19.11;42.18
53550;BME280;67273;52.914;-0.982;2023-03-19T08:32:35;101088.16;;;19.11;42.16
53550;BME280;67273;52.914;-0.982;2023-03-19T08:35:03;101093.84;;;19.10;42.41
53550;BME280;67273;52.914;-0.982;2023-03-19T08:37:30;101098.44;;;19.09;42.16
53550;BME280;67273;52.914;-0.982;2023-03-19T08:39:56;101101.16;;;19.09;42.12
53550;BME280;67273;52.914;-0.982;2023-03-19T08:42:22;101103.06;;;19.09;42.09
53550;BME280;67273;52.914;-0.982;2023-03-19T08:44:48;101095.13;;;19.07;42.08
53550;BME280;67273;52.914;-0.982;2023-03-19T08:47:14;101090.75;;;19.06;42.11
53550;BME280;67273;52.914;-0.982;2023-03-19T08:49:39;101089.09;;;19.05;42.06
53550;BME280;67273;52.914;-0.982;2023-03-19T08:52:07;101087.41;;;19.04;42.11
53550;BME280;67273;52.914;-0.982;2023-03-19T08:54:33;101081.16;;;19.04;41.96
53550;BME280;67273;52.914;-0.982;2023-03-19T08:56:59;101077.59;;;19.03;42.07
53550;BME280;67273;52.914;-0.982;2023-03-19T08:59:25;101088.50;;;19.03;42.19
53550;BME280;67273;52.914;-0.982;2023-03-19T09:01:52;101087.63;;;19.03;42.12
53550;BME280;67273;52.914;-0.982;2023-03-19T09:04:18;101089.78;;;19.00;42.14
53550;BME280;67273;52.914;-0.982;2023-03-19T09:06:44;101096.28;;;18.99;42.02
53550;BME280;67273;52.914;-0.982;2023-03-19T09:09:11;101108.00;;;19.00;42.04
53550;BME280;67273;52.914;-0.982;2023-03-19T09:11:37;101106.34;;;18.99;41.99
53550;BME280;67273;52.914;-0.982;2023-03-19T09:14:03;101108.22;;;18.98;41.98
53550;BME280;67273;52.914;-0.982;2023-03-19T09:16:29;101122.06;;;18.97;42.02
53550;BME280;67273;52.914;-0.982;2023-03-19T09:18:55;101122.31;;;18.95;41.94
53550;BME280;67273;52.914;-0.982;2023-03-19T09:21:21;101123.16;;;18.96;41.91
53550;BME280;67273;52.914;-0.982;2023-03-19T09:23:47;101118.97;;;18.93;41.92
53550;BME280;67273;52.914;-0.982;2023-03-19T09:26:14;101126.31;;;18.93;41.95
53550;BME280;67273;52.914;-0.982;2023-03-19T09:28:40;101126.56;;;18.91;41.91
53550;BME280;67273;52.914;-0.982;2023-03-19T09:31:08;101131.19;;;18.91;41.85
53550;BME280;67273;52.914;-0.982;2023-03-19T09:33:34;101136.84;;;18.89;41.94
53550;BME280;67273;52.914;-0.982;2023-03-19T09:36:00;101137.66;;;18.90;41.90
53550;BME280;67273;52.914;-0.982;2023-03-19T09:38:25;101139.56;;;18.89;41.84
53550;BME280;67273;52.914;-0.982;2023-03-19T09:41:03;101140.63;;;18.88;41.86
53550;BME280;67273;52.914;-0.982;2023-03-19T09:43:49;101145.25;;;18.88;42.09
53550;BME280;67273;52.914;-0.982;2023-03-19T09:46:22;101148.19;;;18.86;42.04
53550;BME280;67273;52.914;-0.982;2023-03-19T09:48:53;101157.22;;;18.87;41.90
53550;BME280;67273;52.914;-0.982;2023-03-19T09:51:29;101163.69;;;18.86;42.10
53550;BME280;67273;52.914;-0.982;2023-03-19T09:54:00;101164.75;;;18.85;41.88
53550;BME280;67273;52.914;-0.982;2023-03-19T09:56:27;101158.69;;;18.83;42.01
53550;BME280;67273;52.914;-0.982;2023-03-19T09:58:55;101161.44;;;18.83;42.13
53550;BME280;67273;52.914;-0.982;2023-03-19T10:01:26;101173.41;;;18.82;42.03
53550;BME280;67273;52.914;-0.982;2023-03-19T10:04:15;101175.84;;;18.83;42.00
53550;BME280;67273;52.914;-0.982;2023-03-19T10:06:44;101167.94;;;18.82;42.18
53550;BME280;67273;52.914;-0.982;2023-03-19T10:09:23;101172.50;;;18.81;42.08
53550;BME280;67273;52.914;-0.982;2023-03-19T10:12:03;101170.88;;;18.80;42.05
53550;BME280;67273;52.914;-0.982;2023-03-19T10:14:47;101172.72;;;18.79;42.11
53550;BME280;67273;52.914;-0.982;2023-03-19T10:17:18;101175.44;;;18.79;42.05
53550;BME280;67273;52.914;-0.982;2023-03-19T10:19:49;101183.03;;;18.77;42.06
53550;BME280;67273;52.914;-0.982;2023-03-19T10:22:18;101189.31;;;18.78;42.21
53550;BME280;67273;52.914;-0.982;2023-03-19T10:24:47;101198.53;;;18.77;42.08
53550;BME280;67273;52.914;-0.982;2023-03-19T10:27:16;101197.94;;;18.75;42.26
53550;BME280;67273;52.914;-0.982;2023-03-19T10:29:45;101205.28;;;18.74;42.29
53550;BME280;67273;52.914;-0.982;2023-03-19T10:32:16;101204.41;;;18.74;42.23
53550;BME280;67273;52.914;-0.982;2023-03-19T10:34:45;101197.31;;;18.73;42.38
53550;BME280;67273;52.914;-0.982;2023-03-19T10:37:15;101201.09;;;18.72;42.29
53550;BME280;67273;52.914;-0.982;2023-03-19T10:39:42;101199.44;;;18.71;42.13
53550;BME280;67273;52.914;-0.982;2023-03-19T10:42:25;101205.13;;;18.69;42.10
53550;BME280;67273;52.914;-0.982;2023-03-19T10:45:01;101198.59;;;18.70;42.09
53550;BME280;67273;52.914;-0.982;2023-03-19T10:47:35;101202.19;;;18.71;42.05
53550;BME280;67273;52.914;-0.982;2023-03-19T10:50:02;101198.00;;;18.68;41.96
53550;BME280;67273;52.914;-0.982;2023-03-19T10:52:30;101201.53;;;18.69;42.14
53550;BME280;67273;52.914;-0.982;2023-03-19T10:55:02;101200.72;;;18.68;42.23
53550;BME280;67273;52.914;-0.982;2023-03-19T10:57:29;101207.25;;;18.67;42.11
53550;BME280;67273;52.914;-0.982;2023-03-19T11:00:04;101215.41;;;18.67;42.09
53550;BME280;67273;52.914;-0.982;2023-03-19T11:02:31;101208.28;;;18.66;42.14
53550;BME280;67273;52.914;-0.982;2023-03-19T11:05:21;101204.13;;;18.64;42.02
53550;BME280;67273;52.914;-0.982;2023-03-19T11:07:48;101204.97;;;18.64;42.09
53550;BME280;67273;52.914;-0.982;2023-03-19T11:10:15;101213.34;;;18.62;41.91
53550;BME280;67273;52.914;-0.982;2023-03-19T11:12:46;101214.16;;;18.63;42.09
53550;BME280;67273;52.914;-0.982;2023-03-19T11:15:20;101223.41;;;18.62;42.01
53550;BME280;67273;52.914;-0.982;2023-03-19T11:17:48;101226.13;;;18.62;42.16
53550;BME280;67273;52.914;-0.982;2023-03-19T11:20:20;101234.28;;;18.62;42.08
53550;BME280;67273;52.914;-0.982;2023-03-19T11:22:48;101227.19;;;18.61;42.07
53550;BME280;67273;52.914;-0.982;2023-03-19T11:25:17;101227.19;;;18.61;41.77
53550;BME280;67273;52.914;-0.982;2023-03-19T11:27:56;101227.41;;;18.59;41.88
53550;BME280;67273;52.914;-0.982;2023-03-19T11:30:26;101218.41;;;18.59;41.90
53550;BME280;67273;52.914;-0.982;2023-03-19T11:33:09;101223.03;;;18.58;41.94
53550;BME280;67273;52.914;-0.982;2023-03-19T11:35:41;101218.41;;;18.59;41.80
53550;BME280;67273;52.914;-0.982;2023-03-19T11:38:15;101225.28;;;18.61;41.96
53550;BME280;67273;52.914;-0.982;2023-03-19T11:40:44;101227.56;;;18.65;41.76
53550;BME280;67273;52.914;-0.982;2023-03-19T11:43:34;101230.66;;;18.68;42.04
53550;BME280;67273;52.914;-0.982;2023-03-19T11:46:13;101239.59;;;18.75;41.77
53550;BME280;67273;52.914;-0.982;2023-03-19T11:49:05;101231.75;;;18.86;41.71
53550;BME280;67273;52.914;-0.982;2023-03-19T11:51:39;101226.63;;;18.96;41.53
53550;BME280;67273;52.914;-0.982;2023-03-19T11:54:11;101218.28;;;19.09;41.36
53550;BME280;67273;52.914;-0.982;2023-03-19T11:56:42;101222.97;;;19.21;41.09
53550;BME280;67273;52.914;-0.982;2023-03-19T11:59:41;101215.91;;;19.31;40.98
53550;BME280;67273;52.914;-0.982;2023-03-19T12:02:36;101223.31;;;19.43;40.87
53550;BME280;67273;52.914;-0.982;2023-03-19T12:05:20;101217.78;;;19.49;40.64
53550;BME280;67273;52.914;-0.982;2023-03-19T12:07:55;101221.47;;;19.55;40.63
53550;BME280;67273;52.914;-0.982;2023-03-19T12:10:28;101218.50;;;19.56;40.58
53550;BME280;67273;52.914;-0.982;2023-03-19T12:13:06;101226.44;;;19.58;40.84
53550;BME280;67273;52.914;-0.982;2023-03-19T12:15:39;101219.22;;;19.64;40.67
53550;BME280;67273;52.914;-0.982;2023-03-19T12:18:18;101216.28;;;19.65;40.74
53550;BME280;67273;52.914;-0.982;2023-03-19T12:20:54;101218.16;;;19.65;40.83
53550;BME280;67273;52.914;-0.982;2023-03-19T12:23:32;101216.28;;;19.65;40.79
53550;BME280;67273;52.914;-0.982;2023-03-19T12:26:02;101212.25;;;19.68;40.80
53550;BME280;67273;52.914;-0.982;2023-03-19T12:28:31;101207.88;;;19.67;40.75
53550;BME280;67273;52.914;-0.982;2023-03-19T12:31:15;101214.97;;;19.68;40.76
53550;BME280;67273;52.914;-0.982;2023-03-19T12:33:48;101217.69;;;19.68;40.77
53550;BME280;67273;52.914;-0.982;2023-03-19T12:36:20;101221.25;;;19.68;40.93
53550;BME280;67273;52.914;-0.982;2023-03-19T12:38:50;101221.03;;;19.70;40.79
53550;BME280;67273;52.914;-0.982;2023-03-19T12:41:21;101219.38;;;19.69;40.83
53550;BME280;67273;52.914;-0.982;2023-03-19T12:43:52;101208.69;;;19.67;40.82
53550;BME280;67273;52.914;-0.982;2023-03-19T12:46:24;101225.88;;;19.68;40.81
53550;BME280;67273;52.914;-0.982;2023-03-19T12:48:57;101226.69;;;19.68;40.75
53550;BME280;67273;52.914;-0.982;2023-03-19T12:51:27;101220.44;;;19.68;40.77
53550;BME280;67273;52.914;-0.982;2023-03-19T12:53:59;101214.16;;;19.67;40.77